sensor_id;sensor_type;location;lat;lon;timestamp;P1;durP1;ratioP1;P2;durP2;ratioP2
52067;SDS011;60237;52.338;21.228;2024-02-14T00:00:53;57.72;;;10.82;;
52067;SDS011;60237;52.338;21.228;2024-02-14T00:03:20;35.58;;;8.25;;
52067;SDS011;60237;52.338;21.228;2024-02-14T00:05:48;63.70;;;9.73;;
52067;SDS011;60237;52.338;21.228;2024-02-14T00:08:14;60.97;;;10.02;;
52067;SDS011;60237;52.338;21.228;2024-02-14T00:10:41;41.03;;;8.25;;
52067;SDS011;60237;52.338;21.228;2024-02-14T00:13:11;57.38;;;9.45;;
52067;SDS011;60237;52.338;21.228;2024-02-14T00:15:38;62.53;;;10.05;;
52067;SDS011;60237;52.338;21.228;2024-02-14T00:18:05;72.90;;;11.88;;
52067;SDS011;60237;52.338;21.228;2024-02-14T00:20:32;54.47;;;9.35;;
52067;SDS011;60237;52.338;21.228;2024-02-14T00:22:59;98.93;;;12.95;;
52067;SDS011;60237;52.338;21.228;2024-02-14T00:25:26;53.22;;;10.38;;
52067;SDS011;60237;52.338;21.228;2024-02-14T00:27:52;56.42;;;10.57;;
52067;SDS011;60237;52.338;21.228;2024-02-14T00:30:20;59.22;;;10.57;;
52067;SDS011;60237;52.338;21.228;2024-02-14T00:32:50;57.85;;;11.77;;
52067;SDS011;60237;52.338;21.228;2024-02-14T00:35:17;50.40;;;10.10;;
52067;SDS011;60237;52.338;21.228;2024-02-14T00:37:44;60.60;;;11.13;;
52067;SDS011;60237;52.338;21.228;2024-02-14T00:40:11;56.97;;;11.15;;
52067;SDS011;60237;52.338;21.228;2024-02-14T00:42:38;70.07;;;10.85;;
52067;SDS011;60237;52.338;21.228;2024-02-14T00:45:05;67.25;;;11.25;;
52067;SDS011;60237;52.338;21.228;2024-02-14T00:47:35;59.58;;;11.15;;
52067;SDS011;60237;52.338;21.228;2024-02-14T00:50:02;67.32;;;11.05;;
52067;SDS011;60237;52.338;21.228;2024-02-14T00:52:29;74.47;;;10.52;;
52067;SDS011;60237;52.338;21.228;2024-02-14T00:54:56;101.88;;;12.73;;
52067;SDS011;60237;52.338;21.228;2024-02-14T00:57:23;45.80;;;8.68;;
52067;SDS011;60237;52.338;21.228;2024-02-14T00:59:53;49.70;;;9.43;;
52067;SDS011;60237;52.338;21.228;2024-02-14T01:02:19;70.57;;;10.05;;
52067;SDS011;60237;52.338;21.228;2024-02-14T01:04:46;52.75;;;9.20;;
52067;SDS011;60237;52.338;21.228;2024-02-14T01:07:13;35.88;;;8.98;;
52067;SDS011;60237;52.338;21.228;2024-02-14T01:09:40;99.90;;;12.35;;
52067;SDS011;60237;52.338;21.228;2024-02-14T01:12:06;67.45;;;9.82;;
52067;SDS011;60237;52.338;21.228;2024-02-14T01:14:33;56.90;;;9.85;;
52067;SDS011;60237;52.338;21.228;2024-02-14T01:17:01;81.35;;;10.93;;
52067;SDS011;60237;52.338;21.228;2024-02-14T01:19:28;63.38;;;9.90;;
52067;SDS011;60237;52.338;21.228;2024-02-14T01:21:58;51.10;;;8.63;;
52067;SDS011;60237;52.338;21.228;2024-02-14T01:24:24;58.80;;;9.43;;
52067;SDS011;60237;52.338;21.228;2024-02-14T01:26:56;56.10;;;11.45;;
52067;SDS011;60237;52.338;21.228;2024-02-14T01:29:22;37.92;;;8.38;;
52067;SDS011;60237;52.338;21.228;2024-02-14T01:31:49;51.35;;;9.00;;
52067;SDS011;60237;52.338;21.228;2024-02-14T01:34:16;53.50;;;9.27;;
52067;SDS011;60237;52.338;21.228;2024-02-14T01:36:44;32.95;;;8.73;;
52067;SDS011;60237;52.338;21.228;2024-02-14T01:39:10;61.15;;;10.30;;
52067;SDS011;60237;52.338;21.228;2024-02-14T01:41:37;61.03;;;10.00;;
52067;SDS011;60237;52.338;21.228;2024-02-14T01:44:08;65.68;;;11.45;;
52067;SDS011;60237;52.338;21.228;2024-02-14T01:46:34;60.05;;;10.63;;
52067;SDS011;60237;52.338;21.228;2024-02-14T01:49:04;76.70;;;11.23;;
52067;SDS011;60237;52.338;21.228;2024-02-14T01:51:31;59.03;;;10.77;;
52067;SDS011;60237;52.338;21.228;2024-02-14T01:53:58;61.10;;;9.32;;
52067;SDS011;60237;52.338;21.228;2024-02-14T01:56:25;49.55;;;9.68;;
52067;SDS011;60237;52.338;21.228;2024-02-14T01:58:54;50.90;;;9.85;;
52067;SDS011;60237;52.338;21.228;2024-02-14T02:51:01;72.47;;;11.43;;
52067;SDS011;60237;52.338;21.228;2024-02-14T02:53:27;71.00;;;12.57;;
52067;SDS011;60237;52.338;21.228;2024-02-14T02:55:54;54.70;;;11.32;;
52067;SDS011;60237;52.338;21.228;2024-02-14T02:58:23;45.03;;;10.95;;
52067;SDS011;60237;52.338;21.228;2024-02-14T03:00:49;70.85;;;12.20;;
52067;SDS011;60237;52.338;21.228;2024-02-14T03:03:16;60.55;;;11.57;;
52067;SDS011;60237;52.338;21.228;2024-02-14T03:05:43;55.35;;;10.30;;
52067;SDS011;60237;52.338;21.228;2024-02-14T03:08:10;64.30;;;10.45;;
52067;SDS011;60237;52.338;21.228;2024-02-14T03:10:40;94.60;;;12.60;;
52067;SDS011;60237;52.338;21.228;2024-02-14T03:13:07;86.65;;;12.65;;
52067;SDS011;60237;52.338;21.228;2024-02-14T03:15:38;104.03;;;13.30;;
52067;SDS011;60237;52.338;21.228;2024-02-14T03:18:04;67.90;;;10.52;;
52067;SDS011;60237;52.338;21.228;2024-02-14T03:20:34;45.97;;;10.05;;
52067;SDS011;60237;52.338;21.228;2024-02-14T03:23:02;76.10;;;11.73;;
52067;SDS011;60237;52.338;21.228;2024-02-14T03:25:30;58.25;;;10.27;;
52067;SDS011;60237;52.338;21.228;2024-02-14T03:27:56;55.53;;;11.80;;
52067;SDS011;60237;52.338;21.228;2024-02-14T03:30:25;36.78;;;11.02;;
52067;SDS011;60237;52.338;21.228;2024-02-14T03:32:51;111.07;;;13.50;;
52067;SDS011;60237;52.338;21.228;2024-02-14T03:35:19;54.40;;;11.43;;
52067;SDS011;60237;52.338;21.228;2024-02-14T03:37:47;47.92;;;10.45;;
52067;SDS011;60237;52.338;21.228;2024-02-14T03:40:15;60.17;;;10.90;;
52067;SDS011;60237;52.338;21.228;2024-02-14T03:42:41;63.97;;;10.90;;
52067;SDS011;60237;52.338;21.228;2024-02-14T03:45:08;77.47;;;12.25;;
52067;SDS011;60237;52.338;21.228;2024-02-14T03:47:35;66.55;;;11.90;;
52067;SDS011;60237;52.338;21.228;2024-02-14T03:50:06;49.53;;;9.40;;
52067;SDS011;60237;52.338;21.228;2024-02-14T03:52:33;46.70;;;10.60;;
52067;SDS011;60237;52.338;21.228;2024-02-14T03:55:00;103.05;;;13.00;;
52067;SDS011;60237;52.338;21.228;2024-02-14T03:57:26;67.78;;;10.77;;
52067;SDS011;60237;52.338;21.228;2024-02-14T03:59:57;60.40;;;11.45;;
52067;SDS011;60237;52.338;21.228;2024-02-14T04:02:23;57.25;;;11.70;;
52067;SDS011;60237;52.338;21.228;2024-02-14T04:04:50;67.47;;;11.63;;
52067;SDS011;60237;52.338;21.228;2024-02-14T04:07:17;62.47;;;11.02;;
52067;SDS011;60237;52.338;21.228;2024-02-14T04:09:44;98.03;;;14.50;;
52067;SDS011;60237;52.338;21.228;2024-02-14T04:12:10;64.28;;;12.18;;
52067;SDS011;60237;52.338;21.228;2024-02-14T04:14:38;50.03;;;11.57;;
52067;SDS011;60237;52.338;21.228;2024-02-14T04:17:04;84.80;;;13.55;;
52067;SDS011;60237;52.338;21.228;2024-02-14T04:19:34;67.50;;;11.90;;
52067;SDS011;60237;52.338;21.228;2024-02-14T04:22:00;42.13;;;10.25;;
52067;SDS011;60237;52.338;21.228;2024-02-14T04:24:27;51.25;;;9.88;;
52067;SDS011;60237;52.338;21.228;2024-02-14T04:26:54;83.05;;;13.65;;
52067;SDS011;60237;52.338;21.228;2024-02-14T04:29:22;41.80;;;11.07;;
52067;SDS011;60237;52.338;21.228;2024-02-14T04:31:49;49.97;;;11.32;;
52067;SDS011;60237;52.338;21.228;2024-02-14T04:34:16;82.47;;;12.98;;
52067;SDS011;60237;52.338;21.228;2024-02-14T04:36:43;64.30;;;14.73;;
52067;SDS011;60237;52.338;21.228;2024-02-14T04:39:10;62.60;;;12.88;;
52067;SDS011;60237;52.338;21.228;2024-02-14T04:41:36;63.55;;;11.43;;
52067;SDS011;60237;52.338;21.228;2024-02-14T04:44:22;92.65;;;13.10;;
52067;SDS011;60237;52.338;21.228;2024-02-14T04:46:48;54.47;;;10.68;;
52067;SDS011;60237;52.338;21.228;2024-02-14T04:49:15;60.30;;;11.60;;
52067;SDS011;60237;52.338;21.228;2024-02-14T04:51:42;93.75;;;14.18;;
52067;SDS011;60237;52.338;21.228;2024-02-14T04:54:08;71.35;;;14.43;;
52067;SDS011;60237;52.338;21.228;2024-02-14T04:56:36;45.05;;;12.57;;
52067;SDS011;60237;52.338;21.228;2024-02-14T04:59:02;78.70;;;12.70;;
52067;SDS011;60237;52.338;21.228;2024-02-14T05:01:31;48.08;;;10.57;;
52067;SDS011;60237;52.338;21.228;2024-02-14T05:03:58;59.97;;;12.90;;
52067;SDS011;60237;52.338;21.228;2024-02-14T05:06:24;63.92;;;12.30;;
52067;SDS011;60237;52.338;21.228;2024-02-14T05:08:51;59.97;;;13.35;;
52067;SDS011;60237;52.338;21.228;2024-02-14T05:11:18;84.10;;;15.40;;
52067;SDS011;60237;52.338;21.228;2024-02-14T05:13:45;82.72;;;14.98;;
52067;SDS011;60237;52.338;21.228;2024-02-14T05:16:12;60.40;;;13.80;;
52067;SDS011;60237;52.338;21.228;2024-02-14T05:18:39;73.05;;;13.57;;
52067;SDS011;60237;52.338;21.228;2024-02-14T05:21:06;87.22;;;16.20;;
52067;SDS011;60237;52.338;21.228;2024-02-14T05:23:34;64.20;;;14.88;;
52067;SDS011;60237;52.338;21.228;2024-02-14T05:26:02;91.72;;;16.52;;
52067;SDS011;60237;52.338;21.228;2024-02-14T05:28:29;58.47;;;14.93;;
52067;SDS011;60237;52.338;21.228;2024-02-14T05:30:56;80.28;;;17.35;;
52067;SDS011;60237;52.338;21.228;2024-02-14T05:33:22;101.05;;;23.00;;
52067;SDS011;60237;52.338;21.228;2024-02-14T05:35:49;153.07;;;39.67;;
52067;SDS011;60237;52.338;21.228;2024-02-14T05:38:16;107.72;;;28.38;;
52067;SDS011;60237;52.338;21.228;2024-02-14T05:40:46;96.25;;;22.52;;
52067;SDS011;60237;52.338;21.228;2024-02-14T05:43:12;120.93;;;23.00;;
52067;SDS011;60237;52.338;21.228;2024-02-14T05:45:39;131.48;;;28.77;;
52067;SDS011;60237;52.338;21.228;2024-02-14T05:48:06;103.68;;;24.40;;
52067;SDS011;60237;52.338;21.228;2024-02-14T05:50:33;101.35;;;27.23;;
52067;SDS011;60237;52.338;21.228;2024-02-14T05:52:59;136.48;;;28.92;;
52067;SDS011;60237;52.338;21.228;2024-02-14T05:55:26;161.82;;;31.30;;
52067;SDS011;60237;52.338;21.228;2024-02-14T05:57:52;117.97;;;26.75;;
52067;SDS011;60237;52.338;21.228;2024-02-14T06:00:19;112.90;;;27.13;;
52067;SDS011;60237;52.338;21.228;2024-02-14T06:02:48;116.13;;;26.33;;
52067;SDS011;60237;52.338;21.228;2024-02-14T06:05:16;104.70;;;24.60;;
52067;SDS011;60237;52.338;21.228;2024-02-14T06:07:43;121.15;;;25.58;;
52067;SDS011;60237;52.338;21.228;2024-02-14T06:10:11;110.30;;;22.85;;
52067;SDS011;60237;52.338;21.228;2024-02-14T06:12:37;112.18;;;23.38;;
52067;SDS011;60237;52.338;21.228;2024-02-14T06:15:06;105.95;;;22.42;;
52067;SDS011;60237;52.338;21.228;2024-02-14T06:17:34;124.00;;;23.35;;
52067;SDS011;60237;52.338;21.228;2024-02-14T06:20:01;90.90;;;20.52;;
52067;SDS011;60237;52.338;21.228;2024-02-14T06:22:33;100.60;;;23.63;;
52067;SDS011;60237;52.338;21.228;2024-02-14T06:25:00;130.20;;;25.55;;
52067;SDS011;60237;52.338;21.228;2024-02-14T06:27:28;77.70;;;19.95;;
52067;SDS011;60237;52.338;21.228;2024-02-14T06:29:54;76.93;;;19.48;;
52067;SDS011;60237;52.338;21.228;2024-02-14T06:32:21;83.97;;;19.10;;
52067;SDS011;60237;52.338;21.228;2024-02-14T06:34:48;99.93;;;19.65;;
52067;SDS011;60237;52.338;21.228;2024-02-14T06:37:15;74.65;;;20.90;;
52067;SDS011;60237;52.338;21.228;2024-02-14T06:39:41;108.43;;;25.73;;
52067;SDS011;60237;52.338;21.228;2024-02-14T06:42:08;91.10;;;21.92;;
52067;SDS011;60237;52.338;21.228;2024-02-14T06:44:34;58.83;;;15.77;;
52067;SDS011;60237;52.338;21.228;2024-02-14T06:47:01;93.70;;;17.48;;
52067;SDS011;60237;52.338;21.228;2024-02-14T06:49:28;63.13;;;14.07;;
52067;SDS011;60237;52.338;21.228;2024-02-14T06:51:55;62.47;;;13.00;;
52067;SDS011;60237;52.338;21.228;2024-02-14T06:54:21;67.97;;;14.65;;
52067;SDS011;60237;52.338;21.228;2024-02-14T06:56:48;97.38;;;16.58;;
52067;SDS011;60237;52.338;21.228;2024-02-14T06:59:14;62.15;;;15.07;;
52067;SDS011;60237;52.338;21.228;2024-02-14T07:01:41;55.13;;;13.93;;
52067;SDS011;60237;52.338;21.228;2024-02-14T07:04:08;71.60;;;15.50;;
52067;SDS011;60237;52.338;21.228;2024-02-14T07:06:34;50.25;;;13.55;;
52067;SDS011;60237;52.338;21.228;2024-02-14T07:09:01;73.63;;;13.55;;
52067;SDS011;60237;52.338;21.228;2024-02-14T07:11:28;64.75;;;13.32;;
52067;SDS011;60237;52.338;21.228;2024-02-14T07:13:55;45.92;;;12.48;;
52067;SDS011;60237;52.338;21.228;2024-02-14T07:16:22;66.82;;;13.25;;
52067;SDS011;60237;52.338;21.228;2024-02-14T07:18:49;77.97;;;13.82;;
52067;SDS011;60237;52.338;21.228;2024-02-14T07:21:16;110.45;;;15.80;;
52067;SDS011;60237;52.338;21.228;2024-02-14T07:23:43;65.82;;;13.75;;
52067;SDS011;60237;52.338;21.228;2024-02-14T07:26:10;88.47;;;14.75;;
52067;SDS011;60237;52.338;21.228;2024-02-14T07:28:36;70.78;;;14.60;;
52067;SDS011;60237;52.338;21.228;2024-02-14T07:31:03;99.50;;;17.48;;
52067;SDS011;60237;52.338;21.228;2024-02-14T07:33:30;64.63;;;16.52;;
52067;SDS011;60237;52.338;21.228;2024-02-14T07:35:57;96.22;;;16.95;;
52067;SDS011;60237;52.338;21.228;2024-02-14T07:38:23;79.85;;;16.90;;
52067;SDS011;60237;52.338;21.228;2024-02-14T07:40:50;86.80;;;17.65;;
52067;SDS011;60237;52.338;21.228;2024-02-14T07:43:16;55.38;;;15.38;;
52067;SDS011;60237;52.338;21.228;2024-02-14T07:45:43;74.55;;;15.38;;
52067;SDS011;60237;52.338;21.228;2024-02-14T07:48:10;78.53;;;17.35;;
52067;SDS011;60237;52.338;21.228;2024-02-14T07:50:37;63.40;;;16.58;;
52067;SDS011;60237;52.338;21.228;2024-02-14T07:53:03;83.82;;;16.40;;
52067;SDS011;60237;52.338;21.228;2024-02-14T07:55:30;94.93;;;18.70;;
52067;SDS011;60237;52.338;21.228;2024-02-14T07:57:57;87.65;;;15.98;;
52067;SDS011;60237;52.338;21.228;2024-02-14T08:00:25;79.30;;;15.82;;
52067;SDS011;60237;52.338;21.228;2024-02-14T08:02:52;79.45;;;14.85;;
52067;SDS011;60237;52.338;21.228;2024-02-14T08:05:19;100.22;;;16.67;;
52067;SDS011;60237;52.338;21.228;2024-02-14T08:07:45;78.43;;;15.15;;
52067;SDS011;60237;52.338;21.228;2024-02-14T08:10:15;47.50;;;12.20;;
52067;SDS011;60237;52.338;21.228;2024-02-14T08:12:42;89.47;;;14.10;;
52067;SDS011;60237;52.338;21.228;2024-02-14T08:15:09;70.18;;;11.30;;
52067;SDS011;60237;52.338;21.228;2024-02-14T08:17:35;62.97;;;12.43;;
52067;SDS011;60237;52.338;21.228;2024-02-14T08:20:03;80.13;;;12.82;;
52067;SDS011;60237;52.338;21.228;2024-02-14T08:22:30;50.92;;;11.60;;
52067;SDS011;60237;52.338;21.228;2024-02-14T08:24:57;86.35;;;14.07;;
52067;SDS011;60237;52.338;21.228;2024-02-14T08:27:24;51.45;;;11.07;;
52067;SDS011;60237;52.338;21.228;2024-02-14T08:29:52;65.68;;;11.57;;
52067;SDS011;60237;52.338;21.228;2024-02-14T08:32:18;44.97;;;9.75;;
52067;SDS011;60237;52.338;21.228;2024-02-14T08:34:45;61.25;;;11.45;;
52067;SDS011;60237;52.338;21.228;2024-02-14T08:37:12;103.32;;;12.65;;
52067;SDS011;60237;52.338;21.228;2024-02-14T08:39:39;65.85;;;9.93;;
52067;SDS011;60237;52.338;21.228;2024-02-14T08:42:05;58.55;;;10.82;;
52067;SDS011;60237;52.338;21.228;2024-02-14T08:44:34;45.05;;;9.27;;
52067;SDS011;60237;52.338;21.228;2024-02-14T08:47:01;81.40;;;11.07;;
52067;SDS011;60237;52.338;21.228;2024-02-14T08:49:28;58.42;;;10.73;;
52067;SDS011;60237;52.338;21.228;2024-02-14T08:51:54;46.33;;;9.30;;
52067;SDS011;60237;52.338;21.228;2024-02-14T08:54:21;76.78;;;10.65;;
52067;SDS011;60237;52.338;21.228;2024-02-14T08:56:49;80.13;;;11.77;;
52067;SDS011;60237;52.338;21.228;2024-02-14T08:59:16;66.20;;;9.93;;
52067;SDS011;60237;52.338;21.228;2024-02-14T09:01:42;50.83;;;9.45;;
52067;SDS011;60237;52.338;21.228;2024-02-14T09:04:09;70.60;;;11.15;;
52067;SDS011;60237;52.338;21.228;2024-02-14T09:06:36;48.47;;;9.02;;
52067;SDS011;60237;52.338;21.228;2024-02-14T09:09:03;72.50;;;9.77;;
52067;SDS011;60237;52.338;21.228;2024-02-14T09:11:30;46.15;;;7.97;;
52067;SDS011;60237;52.338;21.228;2024-02-14T09:13:58;35.50;;;6.20;;
52067;SDS011;60237;52.338;21.228;2024-02-14T09:16:30;53.20;;;7.40;;
52067;SDS011;60237;52.338;21.228;2024-02-14T09:18:57;52.75;;;6.75;;
52067;SDS011;60237;52.338;21.228;2024-02-14T09:21:24;50.88;;;6.97;;
52067;SDS011;60237;52.338;21.228;2024-02-14T09:23:51;49.58;;;6.68;;
52067;SDS011;60237;52.338;21.228;2024-02-14T09:26:18;68.00;;;7.70;;
52067;SDS011;60237;52.338;21.228;2024-02-14T09:28:45;59.95;;;6.85;;
52067;SDS011;60237;52.338;21.228;2024-02-14T09:31:11;50.25;;;6.30;;
52067;SDS011;60237;52.338;21.228;2024-02-14T09:33:38;46.22;;;6.88;;
52067;SDS011;60237;52.338;21.228;2024-02-14T09:36:07;35.80;;;5.60;;
52067;SDS011;60237;52.338;21.228;2024-02-14T09:38:33;44.17;;;5.95;;
52067;SDS011;60237;52.338;21.228;2024-02-14T09:41:43;57.20;;;6.10;;
52067;SDS011;60237;52.338;21.228;2024-02-14T09:43:50;34.97;;;5.20;;
52067;SDS011;60237;52.338;21.228;2024-02-14T09:46:17;76.32;;;7.32;;
52067;SDS011;60237;52.338;21.228;2024-02-14T09:48:44;32.42;;;4.90;;
52067;SDS011;60237;52.338;21.228;2024-02-14T09:51:12;40.53;;;5.53;;
52067;SDS011;60237;52.338;21.228;2024-02-14T09:53:39;47.78;;;6.75;;
52067;SDS011;60237;52.338;21.228;2024-02-14T09:56:06;42.15;;;4.82;;
52067;SDS011;60237;52.338;21.228;2024-02-14T09:58:35;20.58;;;4.53;;
52067;SDS011;60237;52.338;21.228;2024-02-14T10:01:02;54.22;;;5.32;;
52067;SDS011;60237;52.338;21.228;2024-02-14T10:03:29;31.95;;;4.55;;
52067;SDS011;60237;52.338;21.228;2024-02-14T10:05:56;40.00;;;5.97;;
52067;SDS011;60237;52.338;21.228;2024-02-14T10:08:22;35.55;;;4.22;;
52067;SDS011;60237;52.338;21.228;2024-02-14T10:10:49;67.65;;;6.32;;
52067;SDS011;60237;52.338;21.228;2024-02-14T10:13:21;70.45;;;6.13;;
52067;SDS011;60237;52.338;21.228;2024-02-14T10:15:49;53.63;;;5.30;;
52067;SDS011;60237;52.338;21.228;2024-02-14T10:18:15;55.78;;;4.82;;
52067;SDS011;60237;52.338;21.228;2024-02-14T10:20:53;35.22;;;4.65;;
52067;SDS011;60237;52.338;21.228;2024-02-14T10:23:19;40.92;;;4.63;;
52067;SDS011;60237;52.338;21.228;2024-02-14T10:25:47;42.53;;;4.60;;
52067;SDS011;60237;52.338;21.228;2024-02-14T10:28:14;58.95;;;5.60;;
52067;SDS011;60237;52.338;21.228;2024-02-14T10:30:45;24.90;;;3.88;;
52067;SDS011;60237;52.338;21.228;2024-02-14T10:33:11;65.60;;;5.60;;
52067;SDS011;60237;52.338;21.228;2024-02-14T10:35:50;144.45;;;10.13;;
52067;SDS011;60237;52.338;21.228;2024-02-14T10:38:18;203.13;;;13.35;;
52067;SDS011;60237;52.338;21.228;2024-02-14T10:40:47;51.78;;;4.63;;
52067;SDS011;60237;52.338;21.228;2024-02-14T10:43:14;65.70;;;5.90;;
52067;SDS011;60237;52.338;21.228;2024-02-14T10:45:40;38.10;;;4.35;;
52067;SDS011;60237;52.338;21.228;2024-02-14T10:48:11;48.33;;;4.78;;
52067;SDS011;60237;52.338;21.228;2024-02-14T10:50:40;22.60;;;4.38;;
52067;SDS011;60237;52.338;21.228;2024-02-14T10:53:09;69.55;;;5.88;;
52067;SDS011;60237;52.338;21.228;2024-02-14T10:55:37;54.88;;;5.63;;
52067;SDS011;60237;52.338;21.228;2024-02-14T10:58:06;58.40;;;6.00;;
52067;SDS011;60237;52.338;21.228;2024-02-14T11:00:33;42.78;;;4.13;;
52067;SDS011;60237;52.338;21.228;2024-02-14T11:02:59;72.63;;;6.55;;
52067;SDS011;60237;52.338;21.228;2024-02-14T11:05:27;38.17;;;4.50;;
52067;SDS011;60237;52.338;21.228;2024-02-14T11:07:53;32.70;;;4.65;;
52067;SDS011;60237;52.338;21.228;2024-02-14T11:10:21;79.00;;;6.40;;
52067;SDS011;60237;52.338;21.228;2024-02-14T11:12:48;45.20;;;5.20;;
52067;SDS011;60237;52.338;21.228;2024-02-14T11:15:19;83.75;;;8.73;;
52067;SDS011;60237;52.338;21.228;2024-02-14T11:17:46;39.38;;;4.80;;
52067;SDS011;60237;52.338;21.228;2024-02-14T11:22:55;71.50;;;6.13;;
52067;SDS011;60237;52.338;21.228;2024-02-14T11:25:23;33.97;;;4.00;;
52067;SDS011;60237;52.338;21.228;2024-02-14T11:27:50;94.60;;;7.10;;
52067;SDS011;60237;52.338;21.228;2024-02-14T11:30:26;43.15;;;4.53;;
52067;SDS011;60237;52.338;21.228;2024-02-14T11:32:53;64.95;;;5.78;;
52067;SDS011;60237;52.338;21.228;2024-02-14T11:35:20;55.60;;;5.18;;
52067;SDS011;60237;52.338;21.228;2024-02-14T11:37:53;39.28;;;4.50;;
52067;SDS011;60237;52.338;21.228;2024-02-14T11:40:20;96.45;;;7.70;;
52067;SDS011;60237;52.338;21.228;2024-02-14T11:42:47;43.33;;;4.60;;
52067;SDS011;60237;52.338;21.228;2024-02-14T11:45:14;57.47;;;5.88;;
52067;SDS011;60237;52.338;21.228;2024-02-14T11:47:41;125.13;;;8.93;;
52067;SDS011;60237;52.338;21.228;2024-02-14T11:50:08;74.43;;;6.05;;
52067;SDS011;60237;52.338;21.228;2024-02-14T11:52:36;40.63;;;5.32;;
52067;SDS011;60237;52.338;21.228;2024-02-14T11:55:03;71.95;;;5.72;;
52067;SDS011;60237;52.338;21.228;2024-02-14T11:57:30;34.58;;;3.58;;
52067;SDS011;60237;52.338;21.228;2024-02-14T11:59:57;82.95;;;6.63;;
52067;SDS011;60237;52.338;21.228;2024-02-14T12:02:24;55.92;;;5.15;;
52067;SDS011;60237;52.338;21.228;2024-02-14T12:04:51;66.70;;;6.03;;
52067;SDS011;60237;52.338;21.228;2024-02-14T12:07:20;44.08;;;3.63;;
52067;SDS011;60237;52.338;21.228;2024-02-14T12:09:49;53.40;;;4.65;;
52067;SDS011;60237;52.338;21.228;2024-02-14T12:12:15;49.00;;;4.50;;
52067;SDS011;60237;52.338;21.228;2024-02-14T12:14:45;47.00;;;4.95;;
52067;SDS011;60237;52.338;21.228;2024-02-14T12:17:16;41.03;;;3.67;;
52067;SDS011;60237;52.338;21.228;2024-02-14T12:19:45;52.40;;;5.60;;
52067;SDS011;60237;52.338;21.228;2024-02-14T12:22:12;46.70;;;4.38;;
52067;SDS011;60237;52.338;21.228;2024-02-14T12:24:44;73.35;;;5.70;;
52067;SDS011;60237;52.338;21.228;2024-02-14T12:27:11;42.97;;;4.18;;
52067;SDS011;60237;52.338;21.228;2024-02-14T12:29:37;33.85;;;3.58;;
52067;SDS011;60237;52.338;21.228;2024-02-14T12:32:05;46.47;;;4.20;;
52067;SDS011;60237;52.338;21.228;2024-02-14T12:34:32;53.75;;;5.00;;
52067;SDS011;60237;52.338;21.228;2024-02-14T12:36:59;65.53;;;5.15;;
52067;SDS011;60237;52.338;21.228;2024-02-14T12:39:29;44.20;;;4.65;;
52067;SDS011;60237;52.338;21.228;2024-02-14T12:41:56;42.28;;;3.95;;
52067;SDS011;60237;52.338;21.228;2024-02-14T12:44:23;52.72;;;4.47;;
52067;SDS011;60237;52.338;21.228;2024-02-14T12:46:49;53.90;;;7.70;;
52067;SDS011;60237;52.338;21.228;2024-02-14T12:49:16;52.25;;;4.93;;
52067;SDS011;60237;52.338;21.228;2024-02-14T12:51:44;40.90;;;4.90;;
52067;SDS011;60237;52.338;21.228;2024-02-14T12:54:10;55.78;;;4.95;;
52067;SDS011;60237;52.338;21.228;2024-02-14T12:56:39;33.28;;;3.33;;
52067;SDS011;60237;52.338;21.228;2024-02-14T12:59:06;40.22;;;3.58;;
52067;SDS011;60237;52.338;21.228;2024-02-14T13:01:33;37.80;;;4.35;;
52067;SDS011;60237;52.338;21.228;2024-02-14T13:03:59;40.00;;;4.05;;
52067;SDS011;60237;52.338;21.228;2024-02-14T13:06:28;50.47;;;10.70;;
52067;SDS011;60237;52.338;21.228;2024-02-14T13:08:55;64.10;;;6.68;;
52067;SDS011;60237;52.338;21.228;2024-02-14T13:11:22;51.45;;;5.65;;
52067;SDS011;60237;52.338;21.228;2024-02-14T13:13:48;39.33;;;5.63;;
52067;SDS011;60237;52.338;21.228;2024-02-14T13:16:15;44.55;;;6.20;;
52067;SDS011;60237;52.338;21.228;2024-02-14T13:18:42;47.83;;;7.72;;
52067;SDS011;60237;52.338;21.228;2024-02-14T13:21:09;45.92;;;4.82;;
52067;SDS011;60237;52.338;21.228;2024-02-14T13:23:36;54.70;;;5.78;;
52067;SDS011;60237;52.338;21.228;2024-02-14T13:26:03;47.15;;;5.53;;
52067;SDS011;60237;52.338;21.228;2024-02-14T13:28:30;22.85;;;3.38;;
52067;SDS011;60237;52.338;21.228;2024-02-14T13:30:56;74.00;;;5.65;;
52067;SDS011;60237;52.338;21.228;2024-02-14T13:33:23;61.50;;;5.53;;
52067;SDS011;60237;52.338;21.228;2024-02-14T13:35:50;27.17;;;4.00;;
52067;SDS011;60237;52.338;21.228;2024-02-14T13:38:17;72.22;;;6.53;;
52067;SDS011;60237;52.338;21.228;2024-02-14T13:40:44;56.92;;;4.78;;
52067;SDS011;60237;52.338;21.228;2024-02-14T13:43:10;27.75;;;3.72;;
52067;SDS011;60237;52.338;21.228;2024-02-14T13:45:41;62.50;;;5.07;;
52067;SDS011;60237;52.338;21.228;2024-02-14T13:48:09;50.33;;;5.13;;
52067;SDS011;60237;52.338;21.228;2024-02-14T13:50:37;44.63;;;5.25;;
52067;SDS011;60237;52.338;21.228;2024-02-14T13:53:05;38.40;;;4.85;;
52067;SDS011;60237;52.338;21.228;2024-02-14T13:55:32;66.00;;;5.88;;
52067;SDS011;60237;52.338;21.228;2024-02-14T13:57:58;33.53;;;3.78;;
52067;SDS011;60237;52.338;21.228;2024-02-14T14:00:25;44.17;;;4.10;;
52067;SDS011;60237;52.338;21.228;2024-02-14T14:02:52;111.50;;;9.25;;
52067;SDS011;60237;52.338;21.228;2024-02-14T14:05:19;33.97;;;3.97;;
52067;SDS011;60237;52.338;21.228;2024-02-14T14:07:47;41.30;;;5.78;;
52067;SDS011;60237;52.338;21.228;2024-02-14T14:10:24;61.00;;;6.93;;
52067;SDS011;60237;52.338;21.228;2024-02-14T14:12:55;62.33;;;6.15;;
52067;SDS011;60237;52.338;21.228;2024-02-14T14:15:21;60.80;;;6.05;;
52067;SDS011;60237;52.338;21.228;2024-02-14T14:17:49;34.08;;;4.32;;
52067;SDS011;60237;52.338;21.228;2024-02-14T14:20:16;53.72;;;5.68;;
52067;SDS011;60237;52.338;21.228;2024-02-14T14:22:45;71.15;;;7.15;;
52067;SDS011;60237;52.338;21.228;2024-02-14T14:25:11;56.47;;;6.57;;
52067;SDS011;60237;52.338;21.228;2024-02-14T14:27:38;23.48;;;4.15;;
52067;SDS011;60237;52.338;21.228;2024-02-14T14:30:05;44.78;;;6.13;;
52067;SDS011;60237;52.338;21.228;2024-02-14T14:32:32;44.45;;;4.72;;
52067;SDS011;60237;52.338;21.228;2024-02-14T14:34:59;57.97;;;5.28;;
52067;SDS011;60237;52.338;21.228;2024-02-14T14:37:25;59.67;;;6.38;;
52067;SDS011;60237;52.338;21.228;2024-02-14T14:39:52;93.00;;;8.18;;
52067;SDS011;60237;52.338;21.228;2024-02-14T14:42:18;62.72;;;5.82;;
52067;SDS011;60237;52.338;21.228;2024-02-14T14:44:45;34.80;;;3.85;;
52067;SDS011;60237;52.338;21.228;2024-02-14T14:47:12;35.60;;;4.80;;
52067;SDS011;60237;52.338;21.228;2024-02-14T14:49:40;67.70;;;7.00;;
52067;SDS011;60237;52.338;21.228;2024-02-14T14:52:07;61.08;;;5.85;;
52067;SDS011;60237;52.338;21.228;2024-02-14T14:54:34;80.07;;;6.80;;
52067;SDS011;60237;52.338;21.228;2024-02-14T14:57:01;83.20;;;8.63;;
52067;SDS011;60237;52.338;21.228;2024-02-14T14:59:30;46.40;;;5.97;;
52067;SDS011;60237;52.338;21.228;2024-02-14T15:01:57;53.75;;;6.88;;
52067;SDS011;60237;52.338;21.228;2024-02-14T15:04:24;54.72;;;5.72;;
52067;SDS011;60237;52.338;21.228;2024-02-14T15:06:50;79.13;;;6.93;;